sensor_id;sensor_type;location;lat;lon;timestamp;P1;durP1;ratioP1;P2;durP2;ratioP2
57826;SDS011;43656;57.746;11.780;2022-09-13T00:01:56;23.23;;;7.05;;
57826;SDS011;43656;57.746;11.780;2022-09-13T00:04:21;20.35;;;6.13;;
57826;SDS011;43656;57.746;11.780;2022-09-13T00:06:49;21.48;;;6.38;;
57826;SDS011;43656;57.746;11.780;2022-09-13T00:09:15;23.25;;;6.43;;
57826;SDS011;43656;57.746;11.780;2022-09-13T00:11:41;23.80;;;6.93;;
57826;SDS011;43656;57.746;11.780;2022-09-13T00:14:08;20.15;;;7.15;;
57826;SDS011;43656;57.746;11.780;2022-09-13T00:16:33;17.20;;;6.55;;
57826;SDS011;43656;57.746;11.780;2022-09-13T00:18:59;19.00;;;6.72;;
57826;SDS011;43656;57.746;11.780;2022-09-13T00:26:35;17.77;;;6.28;;
57826;SDS011;43656;57.746;11.780;2022-09-13T00:29:02;26.77;;;7.05;;
57826;SDS011;43656;57.746;11.780;2022-09-13T00:31:28;26.17;;;6.38;;
57826;SDS011;43656;57.746;11.780;2022-09-13T00:33:53;26.90;;;6.50;;
57826;SDS011;43656;57.746;11.780;2022-09-13T00:36:19;29.27;;;6.90;;
57826;SDS011;43656;57.746;11.780;2022-09-13T00:38:45;25.45;;;6.30;;
57826;SDS011;43656;57.746;11.780;2022-09-13T00:41:15;25.33;;;6.63;;
57826;SDS011;43656;57.746;11.780;2022-09-13T00:43:49;15.45;;;5.82;;
57826;SDS011;43656;57.746;11.780;2022-09-13T00:46:31;27.05;;;7.28;;
57826;SDS011;43656;57.746;11.780;2022-09-13T00:51:37;28.10;;;5.82;;
57826;SDS011;43656;57.746;11.780;2022-09-13T00:54:05;21.25;;;6.05;;
57826;SDS011;43656;57.746;11.780;2022-09-13T00:56:35;25.58;;;6.63;;
57826;SDS011;43656;57.746;11.780;2022-09-13T00:59:15;27.15;;;6.00;;
57826;SDS011;43656;57.746;11.780;2022-09-13T01:01:51;28.98;;;6.28;;
57826;SDS011;43656;57.746;11.780;2022-09-13T01:04:20;31.80;;;6.63;;
57826;SDS011;43656;57.746;11.780;2022-09-13T01:06:50;25.77;;;6.80;;
57826;SDS011;43656;57.746;11.780;2022-09-13T01:09:18;33.42;;;7.63;;
57826;SDS011;43656;57.746;11.780;2022-09-13T01:11:52;32.42;;;7.20;;
57826;SDS011;43656;57.746;11.780;2022-09-13T01:17:03;22.90;;;6.78;;
57826;SDS011;43656;57.746;11.780;2022-09-13T01:19:29;21.60;;;6.72;;
57826;SDS011;43656;57.746;11.780;2022-09-13T01:30:33;4.57;;;1.33;;
57826;SDS011;43656;57.746;11.780;2022-09-13T01:39:05;11.60;;;1.88;;
57826;SDS011;43656;57.746;11.780;2022-09-13T01:41:45;19.40;;;2.67;;
57826;SDS011;43656;57.746;11.780;2022-09-13T01:47:09;23.42;;;3.67;;
57826;SDS011;43656;57.746;11.780;2022-09-13T01:58:07;15.98;;;2.00;;
57826;SDS011;43656;57.746;11.780;2022-09-13T02:00:43;17.30;;;2.08;;
57826;SDS011;43656;57.746;11.780;2022-09-13T02:06:20;15.18;;;1.73;;
57826;SDS011;43656;57.746;11.780;2022-09-13T02:11:20;9.30;;;1.25;;
57826;SDS011;43656;57.746;11.780;2022-09-13T02:14:00;17.25;;;1.88;;
57826;SDS011;43656;57.746;11.780;2022-09-13T02:16:38;16.35;;;1.75;;
57826;SDS011;43656;57.746;11.780;2022-09-13T02:19:18;23.35;;;2.85;;
57826;SDS011;43656;57.746;11.780;2022-09-13T02:21:50;28.25;;;2.35;;
57826;SDS011;43656;57.746;11.780;2022-09-13T02:24:54;22.20;;;3.13;;
57826;SDS011;43656;57.746;11.780;2022-09-13T02:27:18;19.95;;;2.10;;
57826;SDS011;43656;57.746;11.780;2022-09-13T02:29:47;22.13;;;2.20;;
57826;SDS011;43656;57.746;11.780;2022-09-13T02:32:20;15.32;;;2.17;;
57826;SDS011;43656;57.746;11.780;2022-09-13T02:35:35;16.73;;;2.60;;
57826;SDS011;43656;57.746;11.780;2022-09-13T02:37:46;17.48;;;2.20;;
57826;SDS011;43656;57.746;11.780;2022-09-13T02:40:17;13.88;;;2.17;;
57826;SDS011;43656;57.746;11.780;2022-09-13T02:43:01;17.83;;;2.63;;
57826;SDS011;43656;57.746;11.780;2022-09-13T02:45:34;20.10;;;2.35;;
57826;SDS011;43656;57.746;11.780;2022-09-13T02:48:11;17.75;;;1.98;;
57826;SDS011;43656;57.746;11.780;2022-09-13T02:53:52;9.43;;;1.83;;
57826;SDS011;43656;57.746;11.780;2022-09-13T02:56:29;8.20;;;1.20;;
57826;SDS011;43656;57.746;11.780;2022-09-13T02:59:04;12.02;;;1.58;;
57826;SDS011;43656;57.746;11.780;2022-09-13T03:01:38;10.68;;;1.30;;
57826;SDS011;43656;57.746;11.780;2022-09-13T03:04:07;6.25;;;1.08;;
57826;SDS011;43656;57.746;11.780;2022-09-13T03:06:34;5.65;;;1.00;;
57826;SDS011;43656;57.746;11.780;2022-09-13T03:09:00;8.65;;;0.98;;
57826;SDS011;43656;57.746;11.780;2022-09-13T03:30:47;4.03;;;1.02;;
57826;SDS011;43656;57.746;11.780;2022-09-13T03:33:30;4.72;;;0.88;;
57826;SDS011;43656;57.746;11.780;2022-09-13T03:39:36;5.25;;;1.10;;
57826;SDS011;43656;57.746;11.780;2022-09-13T03:41:35;9.10;;;1.10;;
57826;SDS011;43656;57.746;11.780;2022-09-13T03:44:07;7.93;;;1.70;;
57826;SDS011;43656;57.746;11.780;2022-09-13T03:49:07;6.28;;;1.83;;
57826;SDS011;43656;57.746;11.780;2022-09-13T03:51:36;6.03;;;1.50;;
57826;SDS011;43656;57.746;11.780;2022-09-13T03:54:03;8.48;;;1.10;;
57826;SDS011;43656;57.746;11.780;2022-09-13T03:56:32;5.38;;;1.15;;
57826;SDS011;43656;57.746;11.780;2022-09-13T03:58:58;3.45;;;0.90;;
57826;SDS011;43656;57.746;11.780;2022-09-13T04:01:24;4.72;;;0.90;;
57826;SDS011;43656;57.746;11.780;2022-09-13T04:03:51;3.80;;;0.80;;
57826;SDS011;43656;57.746;11.780;2022-09-13T04:06:17;3.55;;;1.20;;
57826;SDS011;43656;57.746;11.780;2022-09-13T04:08:43;4.70;;;0.80;;
57826;SDS011;43656;57.746;11.780;2022-09-13T04:11:08;3.50;;;0.65;;
57826;SDS011;43656;57.746;11.780;2022-09-13T04:13:37;7.40;;;1.10;;
57826;SDS011;43656;57.746;11.780;2022-09-13T04:16:03;3.33;;;0.98;;
57826;SDS011;43656;57.746;11.780;2022-09-13T04:18:31;2.25;;;0.80;;
57826;SDS011;43656;57.746;11.780;2022-09-13T04:20:58;6.35;;;1.25;;
57826;SDS011;43656;57.746;11.780;2022-09-13T04:23:25;2.65;;;1.10;;
57826;SDS011;43656;57.746;11.780;2022-09-13T04:31:02;4.40;;;0.95;;
57826;SDS011;43656;57.746;11.780;2022-09-13T04:33:28;3.45;;;1.08;;
57826;SDS011;43656;57.746;11.780;2022-09-13T04:35:57;3.90;;;1.10;;
57826;SDS011;43656;57.746;11.780;2022-09-13T04:38:23;4.28;;;1.38;;
57826;SDS011;43656;57.746;11.780;2022-09-13T04:40:55;3.67;;;1.15;;
57826;SDS011;43656;57.746;11.780;2022-09-13T04:43:24;5.03;;;1.30;;
57826;SDS011;43656;57.746;11.780;2022-09-13T04:45:50;5.75;;;1.50;;
57826;SDS011;43656;57.746;11.780;2022-09-13T04:50:51;7.45;;;1.60;;
57826;SDS011;43656;57.746;11.780;2022-09-13T04:58:27;5.70;;;1.55;;
57826;SDS011;43656;57.746;11.780;2022-09-13T05:00:53;8.00;;;1.50;;
57826;SDS011;43656;57.746;11.780;2022-09-13T05:03:21;5.28;;;1.50;;
57826;SDS011;43656;57.746;11.780;2022-09-13T05:05:47;7.30;;;1.58;;
57826;SDS011;43656;57.746;11.780;2022-09-13T05:10:47;8.73;;;1.85;;
57826;SDS011;43656;57.746;11.780;2022-09-13T05:18:33;7.82;;;1.95;;
57826;SDS011;43656;57.746;11.780;2022-09-13T05:23:31;5.32;;;1.17;;
57826;SDS011;43656;57.746;11.780;2022-09-13T05:26:03;6.18;;;1.10;;
57826;SDS011;43656;57.746;11.780;2022-09-13T05:28:30;5.82;;;1.50;;
57826;SDS011;43656;57.746;11.780;2022-09-13T05:31:16;7.55;;;1.25;;
57826;SDS011;43656;57.746;11.780;2022-09-13T05:33:51;5.32;;;1.40;;
57826;SDS011;43656;57.746;11.780;2022-09-13T05:38:54;6.65;;;1.52;;
57826;SDS011;43656;57.746;11.780;2022-09-13T05:41:20;5.90;;;1.20;;
57826;SDS011;43656;57.746;11.780;2022-09-13T05:46:21;5.75;;;1.48;;
57826;SDS011;43656;57.746;11.780;2022-09-13T05:51:22;12.50;;;1.30;;
57826;SDS011;43656;57.746;11.780;2022-09-13T05:53:51;8.13;;;1.45;;
57826;SDS011;43656;57.746;11.780;2022-09-13T05:56:28;9.48;;;1.40;;
57826;SDS011;43656;57.746;11.780;2022-09-13T05:58:54;7.88;;;1.40;;
57826;SDS011;43656;57.746;11.780;2022-09-13T06:01:21;9.95;;;1.33;;
57826;SDS011;43656;57.746;11.780;2022-09-13T06:03:49;7.65;;;1.42;;
57826;SDS011;43656;57.746;11.780;2022-09-13T06:06:16;10.88;;;1.20;;
57826;SDS011;43656;57.746;11.780;2022-09-13T06:08:42;5.38;;;1.23;;
57826;SDS011;43656;57.746;11.780;2022-09-13T06:11:09;7.57;;;1.27;;
57826;SDS011;43656;57.746;11.780;2022-09-13T06:13:37;9.48;;;1.38;;
57826;SDS011;43656;57.746;11.780;2022-09-13T06:16:04;12.25;;;1.75;;
57826;SDS011;43656;57.746;11.780;2022-09-13T06:18:32;9.23;;;1.40;;
57826;SDS011;43656;57.746;11.780;2022-09-13T06:21:01;11.50;;;1.50;;
57826;SDS011;43656;57.746;11.780;2022-09-13T06:23:29;9.48;;;1.40;;
57826;SDS011;43656;57.746;11.780;2022-09-13T06:26:03;13.38;;;1.48;;
57826;SDS011;43656;57.746;11.780;2022-09-13T06:28:30;15.85;;;1.40;;
57826;SDS011;43656;57.746;11.780;2022-09-13T06:31:02;8.55;;;1.30;;
57826;SDS011;43656;57.746;11.780;2022-09-13T06:33:32;10.90;;;1.00;;
57826;SDS011;43656;57.746;11.780;2022-09-13T06:36:00;9.85;;;1.50;;
57826;SDS011;43656;57.746;11.780;2022-09-13T06:38:26;13.07;;;1.70;;
57826;SDS011;43656;57.746;11.780;2022-09-13T06:41:00;8.52;;;2.05;;
57826;SDS011;43656;57.746;11.780;2022-09-13T06:43:30;10.77;;;1.80;;
57826;SDS011;43656;57.746;11.780;2022-09-13T06:46:00;12.02;;;2.20;;
57826;SDS011;43656;57.746;11.780;2022-09-13T06:48:29;11.65;;;1.52;;
57826;SDS011;43656;57.746;11.780;2022-09-13T06:50:59;9.60;;;1.40;;
57826;SDS011;43656;57.746;11.780;2022-09-13T06:53:26;8.80;;;1.50;;
57826;SDS011;43656;57.746;11.780;2022-09-13T06:55:59;11.23;;;1.60;;
57826;SDS011;43656;57.746;11.780;2022-09-13T06:58:25;9.73;;;1.58;;
57826;SDS011;43656;57.746;11.780;2022-09-13T07:00:53;7.90;;;1.20;;
57826;SDS011;43656;57.746;11.780;2022-09-13T07:03:19;12.27;;;2.08;;
57826;SDS011;43656;57.746;11.780;2022-09-13T07:05:44;10.20;;;1.70;;
57826;SDS011;43656;57.746;11.780;2022-09-13T07:08:12;9.00;;;1.95;;
57826;SDS011;43656;57.746;11.780;2022-09-13T07:10:37;11.10;;;1.40;;
57826;SDS011;43656;57.746;11.780;2022-09-13T07:13:03;7.13;;;1.20;;
57826;SDS011;43656;57.746;11.780;2022-09-13T07:15:29;7.72;;;1.17;;
57826;SDS011;43656;57.746;11.780;2022-09-13T07:17:55;8.77;;;1.30;;
57826;SDS011;43656;57.746;11.780;2022-09-13T07:20:20;6.45;;;1.42;;
57826;SDS011;43656;57.746;11.780;2022-09-13T07:22:47;8.63;;;1.50;;
57826;SDS011;43656;57.746;11.780;2022-09-13T07:25:13;13.88;;;2.08;;
57826;SDS011;43656;57.746;11.780;2022-09-13T07:27:39;8.95;;;1.70;;
57826;SDS011;43656;57.746;11.780;2022-09-13T07:30:06;8.38;;;1.52;;
57826;SDS011;43656;57.746;11.780;2022-09-13T07:32:32;4.95;;;1.73;;
57826;SDS011;43656;57.746;11.780;2022-09-13T07:34:57;8.65;;;1.40;;
57826;SDS011;43656;57.746;11.780;2022-09-13T07:37:24;11.60;;;1.70;;
57826;SDS011;43656;57.746;11.780;2022-09-13T07:39:51;11.15;;;1.85;;
57826;SDS011;43656;57.746;11.780;2022-09-13T07:42:16;14.25;;;2.20;;
57826;SDS011;43656;57.746;11.780;2022-09-13T07:44:42;12.15;;;1.70;;
57826;SDS011;43656;57.746;11.780;2022-09-13T07:47:08;9.73;;;1.50;;
57826;SDS011;43656;57.746;11.780;2022-09-13T07:49:35;10.32;;;1.70;;
57826;SDS011;43656;57.746;11.780;2022-09-13T07:52:00;6.03;;;1.30;;
57826;SDS011;43656;57.746;11.780;2022-09-13T07:54:26;10.32;;;1.70;;
57826;SDS011;43656;57.746;11.780;2022-09-13T07:56:52;13.07;;;1.75;;
57826;SDS011;43656;57.746;11.780;2022-09-13T07:59:18;9.15;;;1.70;;
57826;SDS011;43656;57.746;11.780;2022-09-13T08:01:44;12.85;;;1.70;;
57826;SDS011;43656;57.746;11.780;2022-09-13T08:04:13;9.27;;;1.60;;
57826;SDS011;43656;57.746;11.780;2022-09-13T08:06:43;9.35;;;1.70;;
57826;SDS011;43656;57.746;11.780;2022-09-13T08:09:10;12.25;;;1.50;;
57826;SDS011;43656;57.746;11.780;2022-09-13T08:11:41;8.65;;;1.58;;
57826;SDS011;43656;57.746;11.780;2022-09-13T08:14:09;9.43;;;1.60;;
57826;SDS011;43656;57.746;11.780;2022-09-13T08:16:36;11.88;;;1.92;;
57826;SDS011;43656;57.746;11.780;2022-09-13T08:19:03;10.73;;;1.85;;
57826;SDS011;43656;57.746;11.780;2022-09-13T08:21:35;12.05;;;1.55;;
57826;SDS011;43656;57.746;11.780;2022-09-13T08:24:02;12.68;;;1.80;;
57826;SDS011;43656;57.746;11.780;2022-09-13T08:26:29;11.35;;;2.15;;
57826;SDS011;43656;57.746;11.780;2022-09-13T08:28:56;12.98;;;1.45;;
57826;SDS011;43656;57.746;11.780;2022-09-13T08:31:25;13.43;;;1.80;;
57826;SDS011;43656;57.746;11.780;2022-09-13T08:33:51;9.27;;;1.73;;
57826;SDS011;43656;57.746;11.780;2022-09-13T08:36:17;8.15;;;1.30;;
57826;SDS011;43656;57.746;11.780;2022-09-13T08:38:47;13.32;;;1.60;;
57826;SDS011;43656;57.746;11.780;2022-09-13T08:49:57;7.28;;;1.25;;
57826;SDS011;43656;57.746;11.780;2022-09-13T08:58:24;15.52;;;1.88;;
57826;SDS011;43656;57.746;11.780;2022-09-13T09:00:56;11.88;;;1.60;;
57826;SDS011;43656;57.746;11.780;2022-09-13T09:03:36;8.07;;;1.35;;
57826;SDS011;43656;57.746;11.780;2022-09-13T09:06:10;12.80;;;1.60;;
57826;SDS011;43656;57.746;11.780;2022-09-13T09:08:40;6.07;;;1.13;;
57826;SDS011;43656;57.746;11.780;2022-09-13T09:11:32;8.10;;;1.70;;
57826;SDS011;43656;57.746;11.780;2022-09-13T09:16:57;11.38;;;2.13;;
57826;SDS011;43656;57.746;11.780;2022-09-13T09:19:28;10.30;;;1.63;;
57826;SDS011;43656;57.746;11.780;2022-09-13T09:22:12;10.13;;;1.70;;
57826;SDS011;43656;57.746;11.780;2022-09-13T09:24:44;10.40;;;2.17;;
57826;SDS011;43656;57.746;11.780;2022-09-13T09:27:15;9.48;;;1.48;;
57826;SDS011;43656;57.746;11.780;2022-09-13T09:29:43;10.82;;;1.40;;
57826;SDS011;43656;57.746;11.780;2022-09-13T09:32:23;11.90;;;1.73;;
57826;SDS011;43656;57.746;11.780;2022-09-13T09:35:02;8.02;;;1.17;;
57826;SDS011;43656;57.746;11.780;2022-09-13T09:37:36;9.82;;;1.55;;
57826;SDS011;43656;57.746;11.780;2022-09-13T09:40:04;8.63;;;1.33;;
57826;SDS011;43656;57.746;11.780;2022-09-13T09:42:38;8.95;;;1.30;;
57826;SDS011;43656;57.746;11.780;2022-09-13T09:45:23;10.52;;;1.30;;
57826;SDS011;43656;57.746;11.780;2022-09-13T09:47:54;5.55;;;1.00;;
57826;SDS011;43656;57.746;11.780;2022-09-13T09:55:40;6.80;;;1.10;;
57826;SDS011;43656;57.746;11.780;2022-09-13T09:58:11;7.15;;;1.10;;
57826;SDS011;43656;57.746;11.780;2022-09-13T10:00:54;12.02;;;2.22;;
57826;SDS011;43656;57.746;11.780;2022-09-13T10:03:27;9.63;;;1.98;;
57826;SDS011;43656;57.746;11.780;2022-09-13T10:06:05;11.23;;;1.45;;
57826;SDS011;43656;57.746;11.780;2022-09-13T10:08:33;14.15;;;2.15;;
57826;SDS011;43656;57.746;11.780;2022-09-13T10:11:01;10.50;;;1.80;;
57826;SDS011;43656;57.746;11.780;2022-09-13T10:13:28;13.35;;;1.85;;
57826;SDS011;43656;57.746;11.780;2022-09-13T10:16:02;8.40;;;1.42;;
57826;SDS011;43656;57.746;11.780;2022-09-13T10:18:47;14.63;;;2.10;;
57826;SDS011;43656;57.746;11.780;2022-09-13T10:23:41;10.15;;;1.85;;
57826;SDS011;43656;57.746;11.780;2022-09-13T10:26:09;7.43;;;1.40;;
57826;SDS011;43656;57.746;11.780;2022-09-13T10:29:07;9.02;;;1.42;;
57826;SDS011;43656;57.746;11.780;2022-09-13T10:31:38;5.65;;;1.20;;
57826;SDS011;43656;57.746;11.780;2022-09-13T10:34:10;10.00;;;1.58;;
57826;SDS011;43656;57.746;11.780;2022-09-13T10:36:43;10.00;;;1.45;;
57826;SDS011;43656;57.746;11.780;2022-09-13T10:39:22;7.50;;;1.30;;
57826;SDS011;43656;57.746;11.780;2022-09-13T10:47:05;8.25;;;1.30;;
57826;SDS011;43656;57.746;11.780;2022-09-13T10:49:45;4.88;;;1.20;;
57826;SDS011;43656;57.746;11.780;2022-09-13T10:54:51;8.93;;;1.35;;
57826;SDS011;43656;57.746;11.780;2022-09-13T10:57:26;12.43;;;1.55;;
57826;SDS011;43656;57.746;11.780;2022-09-13T11:21:48;7.18;;;1.40;;
57826;SDS011;43656;57.746;11.780;2022-09-13T11:24:41;8.38;;;1.27;;
57826;SDS011;43656;57.746;11.780;2022-09-13T11:30:20;6.38;;;1.00;;
57826;SDS011;43656;57.746;11.780;2022-09-13T11:51:26;2.63;;;0.30;;
57826;SDS011;43656;57.746;11.780;2022-09-13T11:57:39;1.38;;;0.30;;
57826;SDS011;43656;57.746;11.780;2022-09-13T12:05:53;1.65;;;0.50;;
57826;SDS011;43656;57.746;11.780;2022-09-13T12:08:30;3.13;;;0.60;;
57826;SDS011;43656;57.746;11.780;2022-09-13T12:11:05;3.25;;;0.60;;
57826;SDS011;43656;57.746;11.780;2022-09-13T12:16:07;5.35;;;0.80;;
57826;SDS011;43656;57.746;11.780;2022-09-13T12:18:40;5.60;;;0.93;;
57826;SDS011;43656;57.746;11.780;2022-09-13T12:21:13;6.75;;;1.02;;
57826;SDS011;43656;57.746;11.780;2022-09-13T12:23:54;4.95;;;0.90;;
57826;SDS011;43656;57.746;11.780;2022-09-13T12:26:32;4.40;;;0.73;;
57826;SDS011;43656;57.746;11.780;2022-09-13T12:32:02;6.18;;;0.80;;
57826;SDS011;43656;57.746;11.780;2022-09-13T12:37:37;5.43;;;0.70;;
57826;SDS011;43656;57.746;11.780;2022-09-13T12:48:35;3.13;;;0.52;;
57826;SDS011;43656;57.746;11.780;2022-09-13T13:05:45;3.92;;;0.60;;
57826;SDS011;43656;57.746;11.780;2022-09-13T13:10:39;3.92;;;0.70;;
57826;SDS011;43656;57.746;11.780;2022-09-13T13:13:12;3.97;;;1.23;;
57826;SDS011;43656;57.746;11.780;2022-09-13T13:18:30;4.63;;;0.77;;
57826;SDS011;43656;57.746;11.780;2022-09-13T13:26:52;4.40;;;0.70;;
57826;SDS011;43656;57.746;11.780;2022-09-13T13:37:03;5.60;;;0.70;;
57826;SDS011;43656;57.746;11.780;2022-09-13T13:40:32;6.30;;;1.17;;
57826;SDS011;43656;57.746;11.780;2022-09-13T13:42:49;3.40;;;0.98;;
57826;SDS011;43656;57.746;11.780;2022-09-13T13:45:35;6.25;;;0.90;;
57826;SDS011;43656;57.746;11.780;2022-09-13T13:48:08;4.75;;;0.95;;
57826;SDS011;43656;57.746;11.780;2022-09-13T13:51:01;8.57;;;1.10;;
57826;SDS011;43656;57.746;11.780;2022-09-13T13:53:42;6.90;;;1.00;;
57826;SDS011;43656;57.746;11.780;2022-09-13T13:59:22;7.88;;;1.27;;
57826;SDS011;43656;57.746;11.780;2022-09-13T14:01:52;7.32;;;1.13;;
57826;SDS011;43656;57.746;11.780;2022-09-13T14:07:13;11.90;;;2.08;;
57826;SDS011;43656;57.746;11.780;2022-09-13T14:15:15;20.27;;;3.70;;
57826;SDS011;43656;57.746;11.780;2022-09-13T14:20:18;17.55;;;2.75;;
57826;SDS011;43656;57.746;11.780;2022-09-13T14:22:45;14.18;;;2.30;;
57826;SDS011;43656;57.746;11.780;2022-09-13T14:27:43;8.23;;;1.80;;
57826;SDS011;43656;57.746;11.780;2022-09-13T14:35:29;7.60;;;1.52;;
57826;SDS011;43656;57.746;11.780;2022-09-13T14:38:08;9.95;;;1.35;;
57826;SDS011;43656;57.746;11.780;2022-09-13T14:40:36;11.70;;;1.90;;
57826;SDS011;43656;57.746;11.780;2022-09-13T14:43:12;9.75;;;1.70;;
57826;SDS011;43656;57.746;11.780;2022-09-13T14:45:40;8.77;;;1.77;;
57826;SDS011;43656;57.746;11.780;2022-09-13T15:01:05;20.83;;;3.28;;
57826;SDS011;43656;57.746;11.780;2022-09-13T15:03:34;18.70;;;3.22;;
57826;SDS011;43656;57.746;11.780;2022-09-13T15:11:13;24.52;;;3.88;;
57826;SDS011;43656;57.746;11.780;2022-09-13T15:13:40;22.15;;;3.65;;
57826;SDS011;43656;57.746;11.780;2022-09-13T15:16:23;18.83;;;3.40;;
57826;SDS011;43656;57.746;11.780;2022-09-13T15:21:47;23.25;;;3.40;;
57826;SDS011;43656;57.746;11.780;2022-09-13T15:24:32;23.27;;;3.72;;
57826;SDS011;43656;57.746;11.780;2022-09-13T15:29:28;24.80;;;4.00;;
57826;SDS011;43656;57.746;11.780;2022-09-13T15:31:58;12.68;;;2.80;;
57826;SDS011;43656;57.746;11.780;2022-09-13T15:34:26;26.80;;;4.30;;
57826;SDS011;43656;57.746;11.780;2022-09-13T15:39:29;23.13;;;3.92;;
57826;SDS011;43656;57.746;11.780;2022-09-13T15:42:10;18.92;;;3.05;;
57826;SDS011;43656;57.746;11.780;2022-09-13T15:44:35;23.83;;;4.18;;
57826;SDS011;43656;57.746;11.780;2022-09-13T15:47:01;27.48;;;4.47;;
57826;SDS011;43656;57.746;11.780;2022-09-13T15:49:32;23.05;;;4.18;;
57826;SDS011;43656;57.746;11.780;2022-09-13T15:51:58;22.40;;;4.28;;
57826;SDS011;43656;57.746;11.780;2022-09-13T15:54:26;17.00;;;3.53;;
57826;SDS011;43656;57.746;11.780;2022-09-13T15:56:57;22.30;;;4.70;;
57826;SDS011;43656;57.746;11.780;2022-09-13T15:59:22;22.58;;;3.75;;
57826;SDS011;43656;57.746;11.780;2022-09-13T16:01:48;18.80;;;4.20;;
57826;SDS011;43656;57.746;11.780;2022-09-13T16:04:15;20.00;;;3.67;;
57826;SDS011;43656;57.746;11.780;2022-09-13T16:06:41;22.50;;;3.97;;
57826;SDS011;43656;57.746;11.780;2022-09-13T16:09:17;24.20;;;3.83;;
57826;SDS011;43656;57.746;11.780;2022-09-13T16:11:43;23.27;;;3.97;;
57826;SDS011;43656;57.746;11.780;2022-09-13T16:14:09;21.13;;;3.70;;
57826;SDS011;43656;57.746;11.780;2022-09-13T16:16:34;23.23;;;3.45;;
57826;SDS011;43656;57.746;11.780;2022-09-13T16:19:00;16.83;;;3.70;;
57826;SDS011;43656;57.746;11.780;2022-09-13T16:21:25;28.90;;;4.57;;
57826;SDS011;43656;57.746;11.780;2022-09-13T16:23:53;17.10;;;2.88;;
57826;SDS011;43656;57.746;11.780;2022-09-13T16:26:19;17.23;;;3.38;;
57826;SDS011;43656;57.746;11.780;2022-09-13T16:28:44;19.55;;;3.20;;
57826;SDS011;43656;57.746;11.780;2022-09-13T16:31:09;21.60;;;3.50;;
57826;SDS011;43656;57.746;11.780;2022-09-13T16:33:35;19.42;;;3.72;;
57826;SDS011;43656;57.746;11.780;2022-09-13T16:36:01;25.13;;;4.30;;
57826;SDS011;43656;57.746;11.780;2022-09-13T16:38:26;19.52;;;3.38;;
57826;SDS011;43656;57.746;11.780;2022-09-13T16:40:51;22.70;;;3.45;;
57826;SDS011;43656;57.746;11.780;2022-09-13T16:43:17;20.63;;;3.97;;
57826;SDS011;43656;57.746;11.780;2022-09-13T16:45:42;24.60;;;5.30;;
57826;SDS011;43656;57.746;11.780;2022-09-13T16:48:09;18.38;;;3.65;;
57826;SDS011;43656;57.746;11.780;2022-09-13T16:50:38;30.58;;;4.50;;
57826;SDS011;43656;57.746;11.780;2022-09-13T16:53:04;20.63;;;3.72;;
57826;SDS011;43656;57.746;11.780;2022-09-13T16:55:30;15.77;;;3.65;;
57826;SDS011;43656;57.746;11.780;2022-09-13T16:57:55;22.42;;;3.33;;
57826;SDS011;43656;57.746;11.780;2022-09-13T17:00:21;17.00;;;3.53;;
57826;SDS011;43656;57.746;11.780;2022-09-13T17:02:48;17.60;;;3.20;;
57826;SDS011;43656;57.746;11.780;2022-09-13T17:05:13;18.60;;;3.00;;
57826;SDS011;43656;57.746;11.780;2022-09-13T17:07:39;19.65;;;3.72;;
57826;SDS011;43656;57.746;11.780;2022-09-13T17:10:05;18.05;;;2.92;;
57826;SDS011;43656;57.746;11.780;2022-09-13T17:12:31;20.35;;;3.28;;
57826;SDS011;43656;57.746;11.780;2022-09-13T17:14:57;18.25;;;3.67;;
57826;SDS011;43656;57.746;11.780;2022-09-13T17:17:24;16.58;;;3.22;;
57826;SDS011;43656;57.746;11.780;2022-09-13T17:19:49;19.13;;;3.50;;
57826;SDS011;43656;57.746;11.780;2022-09-13T17:22:16;21.67;;;3.83;;
57826;SDS011;43656;57.746;11.780;2022-09-13T17:24:42;13.40;;;2.78;;
57826;SDS011;43656;57.746;11.780;2022-09-13T17:27:08;18.42;;;3.30;;
57826;SDS011;43656;57.746;11.780;2022-09-13T17:29:33;16.25;;;3.15;;
57826;SDS011;43656;57.746;11.780;2022-09-13T17:32:00;16.23;;;3.22;;
57826;SDS011;43656;57.746;11.780;2022-09-13T17:34:26;16.25;;;3.17;;
57826;SDS011;43656;57.746;11.780;2022-09-13T17:36:52;15.60;;;2.80;;
57826;SDS011;43656;57.746;11.780;2022-09-13T17:39:18;20.50;;;3.75;;
57826;SDS011;43656;57.746;11.780;2022-09-13T17:41:44;20.30;;;3.70;;
57826;SDS011;43656;57.746;11.780;2022-09-13T17:44:10;26.45;;;3.70;;
57826;SDS011;43656;57.746;11.780;2022-09-13T17:46:39;23.88;;;3.83;;
57826;SDS011;43656;57.746;11.780;2022-09-13T17:49:04;19.60;;;3.20;;
57826;SDS011;43656;57.746;11.780;2022-09-13T17:51:30;14.68;;;3.10;;
57826;SDS011;43656;57.746;11.780;2022-09-13T17:53:57;16.85;;;3.40;;
57826;SDS011;43656;57.746;11.780;2022-09-13T17:56:25;17.17;;;2.90;;
57826;SDS011;43656;57.746;11.780;2022-09-13T17:59:02;28.60;;;4.03;;
57826;SDS011;43656;57.746;11.780;2022-09-13T18:01:28;24.05;;;3.90;;
57826;SDS011;43656;57.746;11.780;2022-09-13T18:03:54;22.98;;;3.65;;
57826;SDS011;43656;57.746;11.780;2022-09-13T18:53:43;27.90;;;4.50;;
57826;SDS011;43656;57.746;11.780;2022-09-13T19:07:47;29.55;;;4.72;;
57826;SDS011;43656;57.746;11.780;2022-09-13T19:10:13;20.92;;;4.18;;
57826;SDS011;43656;57.746;11.780;2022-09-13T19:12:39;26.25;;;4.85;;
57826;SDS011;43656;57.746;11.780;2022-09-13T19:15:07;24.95;;;4.25;;
57826;SDS011;43656;57.746;11.780;2022-09-13T19:35:40;17.17;;;3.17;;
57826;SDS011;43656;57.746;11.780;2022-09-13T19:53:37;27.50;;;3.72;;
57826;SDS011;43656;57.746;11.780;2022-09-13T19:56:03;26.33;;;4.75;;
57826;SDS011;43656;57.746;11.780;2022-09-13T20:06:15;28.73;;;5.20;;
57826;SDS011;43656;57.746;11.780;2022-09-13T20:08:41;25.65;;;3.70;;
57826;SDS011;43656;57.746;11.780;2022-09-13T20:11:08;25.83;;;4.30;;
57826;SDS011;43656;57.746;11.780;2022-09-13T20:13:35;25.77;;;3.30;;
57826;SDS011;43656;57.746;11.780;2022-09-13T20:16:07;19.30;;;3.30;;
57826;SDS011;43656;57.746;11.780;2022-09-13T20:18:36;22.63;;;4.07;;
57826;SDS011;43656;57.746;11.780;2022-09-13T20:21:03;23.13;;;3.85;;
57826;SDS011;43656;57.746;11.780;2022-09-13T20:23:31;25.38;;;3.55;;
57826;SDS011;43656;57.746;11.780;2022-09-13T20:25:58;15.10;;;3.13;;
57826;SDS011;43656;57.746;11.780;2022-09-13T20:28:24;18.83;;;2.97;;
57826;SDS011;43656;57.746;11.780;2022-09-13T20:30:54;15.95;;;2.90;;
57826;SDS011;43656;57.746;11.780;2022-09-13T20:33:26;14.77;;;2.30;;
57826;SDS011;43656;57.746;11.780;2022-09-13T20:35:52;17.13;;;3.13;;
57826;SDS011;43656;57.746;11.780;2022-09-13T20:38:17;16.23;;;2.83;;
57826;SDS011;43656;57.746;11.780;2022-09-13T20:40:43;13.93;;;2.25;;
57826;SDS011;43656;57.746;11.780;2022-09-13T20:43:11;14.40;;;2.58;;
57826;SDS011;43656;57.746;11.780;2022-09-13T20:50:54;12.30;;;2.70;;
57826;SDS011;43656;57.746;11.780;2022-09-13T20:53:24;19.33;;;3.58;;
57826;SDS011;43656;57.746;11.780;2022-09-13T20:55:51;20.33;;;2.97;;
57826;SDS011;43656;57.746;11.780;2022-09-13T21:21:34;16.15;;;2.40;;
57826;SDS011;43656;57.746;11.780;2022-09-13T21:36:57;9.20;;;1.20;;
57826;SDS011;43656;57.746;11.780;2022-09-13T21:41:58;12.30;;;1.60;;
57826;SDS011;43656;57.746;11.780;2022-09-13T21:44:23;11.30;;;1.30;;
57826;SDS011;43656;57.746;11.780;2022-09-13T21:46:52;4.32;;;1.00;;
57826;SDS011;43656;57.746;11.780;2022-09-13T21:54:27;2.38;;;0.50;;
57826;SDS011;43656;57.746;11.780;2022-09-13T22:12:24;5.07;;;0.85;;